sensor_id;sensor_type;location;lat;lon;timestamp;pressure;altitude;pressure_sealevel;temperature
73662;BMP280;61956;52.540;13.382;2023-09-08T00:01:58;83715.78;;;19.88
73662;BMP280;61956;52.540;13.382;2023-09-08T00:04:28;83375.91;;;19.78
73662;BMP280;61956;52.540;13.382;2023-09-08T00:06:58;83219.94;;;19.68
73662;BMP280;61956;52.540;13.382;2023-09-08T00:09:27;82960.69;;;19.60
73662;BMP280;61956;52.540;13.382;2023-09-08T00:11:56;83039.44;;;19.54
73662;BMP280;61956;52.540;13.382;2023-09-08T00:14:25;82957.34;;;19.47
73662;BMP280;61956;52.540;13.382;2023-09-08T00:16:54;86781.13;;;19.77
73662;BMP280;61956;52.540;13.382;2023-09-08T00:19:27;85442.72;;;19.71
73662;BMP280;61956;52.540;13.382;2023-09-08T00:21:56;84107.38;;;19.54
73662;BMP280;61956;52.540;13.382;2023-09-08T00:24:26;84760.91;;;19.56
73662;BMP280;61956;52.540;13.382;2023-09-08T00:26:56;84773.34;;;19.55
73662;BMP280;61956;52.540;13.382;2023-09-08T00:29:25;84069.06;;;19.44
73662;BMP280;61956;52.540;13.382;2023-09-08T00:31:54;84871.63;;;19.46
73662;BMP280;61956;52.540;13.382;2023-09-08T00:34:23;84415.09;;;19.43
73662;BMP280;61956;52.540;13.382;2023-09-08T00:36:55;84532.84;;;19.41
73662;BMP280;61956;52.540;13.382;2023-09-08T00:39:26;84119.00;;;19.34
73662;BMP280;61956;52.540;13.382;2023-09-08T00:41:55;84476.09;;;19.33
73662;BMP280;61956;52.540;13.382;2023-09-08T00:44:24;85272.09;;;19.38
73662;BMP280;61956;52.540;13.382;2023-09-08T00:46:53;85622.81;;;19.40
73662;BMP280;61956;52.540;13.382;2023-09-08T00:49:23;85369.56;;;19.40
73662;BMP280;61956;52.540;13.382;2023-09-08T00:51:54;86069.09;;;19.43
73662;BMP280;61956;52.540;13.382;2023-09-08T00:54:24;87065.56;;;19.54
73662;BMP280;61956;52.540;13.382;2023-09-08T00:56:56;86144.38;;;19.49
73662;BMP280;61956;52.540;13.382;2023-09-08T00:59:25;85858.34;;;19.44
73662;BMP280;61956;52.540;13.382;2023-09-08T01:01:54;85448.09;;;19.38
73662;BMP280;61956;52.540;13.382;2023-09-08T01:04:24;85054.28;;;19.31
73662;BMP280;61956;52.540;13.382;2023-09-08T01:06:56;84903.25;;;19.28
73662;BMP280;61956;52.540;13.382;2023-09-08T01:09:26;84957.59;;;19.23
73662;BMP280;61956;52.540;13.382;2023-09-08T01:11:56;84092.72;;;19.13
73662;BMP280;61956;52.540;13.382;2023-09-08T01:14:29;83372.19;;;19.02
73662;BMP280;61956;52.540;13.382;2023-09-08T01:16:59;83222.81;;;18.95
73662;BMP280;61956;52.540;13.382;2023-09-08T01:19:29;83756.03;;;18.93
73662;BMP280;61956;52.540;13.382;2023-09-08T01:22:13;83827.25;;;18.94
73662;BMP280;61956;52.540;13.382;2023-09-08T01:25:12;85282.78;;;19.03
73662;BMP280;61956;52.540;13.382;2023-09-08T01:27:50;86901.19;;;19.18
73662;BMP280;61956;52.540;13.382;2023-09-08T01:30:23;87220.81;;;19.29
73662;BMP280;61956;52.540;13.382;2023-09-08T01:32:55;89089.38;;;19.49
73662;BMP280;61956;52.540;13.382;2023-09-08T01:35:25;90639.22;;;19.73
73662;BMP280;61956;52.540;13.382;2023-09-08T01:37:55;90992.47;;;19.85
73662;BMP280;61956;52.540;13.382;2023-09-08T01:40:26;89468.63;;;19.80
73662;BMP280;61956;52.540;13.382;2023-09-08T01:42:56;89703.97;;;19.79
73662;BMP280;61956;52.540;13.382;2023-09-08T01:45:25;89164.44;;;19.80
73662;BMP280;61956;52.540;13.382;2023-09-08T01:47:54;89779.06;;;19.84
73662;BMP280;61956;52.540;13.382;2023-09-08T01:50:24;89633.50;;;19.85
73662;BMP280;61956;52.540;13.382;2023-09-08T01:52:53;88139.75;;;19.74
73662;BMP280;61956;52.540;13.382;2023-09-08T01:55:22;88086.44;;;19.67
73662;BMP280;61956;52.540;13.382;2023-09-08T01:57:54;88975.44;;;19.76
73662;BMP280;61956;52.540;13.382;2023-09-08T02:00:23;88835.88;;;19.77
73662;BMP280;61956;52.540;13.382;2023-09-08T02:02:53;88932.91;;;19.77
73662;BMP280;61956;52.540;13.382;2023-09-08T02:05:24;89051.69;;;19.80
73662;BMP280;61956;52.540;13.382;2023-09-08T02:07:53;87720.09;;;19.64
73662;BMP280;61956;52.540;13.382;2023-09-08T02:10:24;87923.22;;;19.65
73662;BMP280;61956;52.540;13.382;2023-09-08T02:12:56;88196.44;;;19.65
73662;BMP280;61956;52.540;13.382;2023-09-08T02:15:25;88749.09;;;19.71
73662;BMP280;61956;52.540;13.382;2023-09-08T02:17:54;89386.50;;;19.77
73662;BMP280;61956;52.540;13.382;2023-09-08T02:20:24;89070.47;;;19.76
73662;BMP280;61956;52.540;13.382;2023-09-08T02:22:54;88751.91;;;19.75
73662;BMP280;61956;52.540;13.382;2023-09-08T02:25:26;88870.56;;;19.76
73662;BMP280;61956;52.540;13.382;2023-09-08T02:27:58;88352.59;;;19.70
73662;BMP280;61956;52.540;13.382;2023-09-08T02:30:28;87928.47;;;19.65
73662;BMP280;61956;52.540;13.382;2023-09-08T02:32:58;88301.28;;;19.65
73662;BMP280;61956;52.540;13.382;2023-09-08T02:35:28;88141.41;;;19.65
73662;BMP280;61956;52.540;13.382;2023-09-08T02:37:59;87309.91;;;19.57
73662;BMP280;61956;52.540;13.382;2023-09-08T02:40:28;87213.50;;;19.51
73662;BMP280;61956;52.540;13.382;2023-09-08T02:43:03;87635.88;;;19.52
73662;BMP280;61956;52.540;13.382;2023-09-08T02:45:32;87151.88;;;19.48
73662;BMP280;61956;52.540;13.382;2023-09-08T02:48:02;87388.22;;;19.47
73662;BMP280;61956;52.540;13.382;2023-09-08T02:50:31;86214.97;;;19.36
73662;BMP280;61956;52.540;13.382;2023-09-08T02:53:00;86563.13;;;19.34
73662;BMP280;61956;52.540;13.382;2023-09-08T02:55:30;86343.81;;;19.27
73662;BMP280;61956;52.540;13.382;2023-09-08T02:58:05;86784.28;;;19.31
73662;BMP280;61956;52.540;13.382;2023-09-08T03:00:34;86033.63;;;19.22
73662;BMP280;61956;52.540;13.382;2023-09-08T03:03:04;85609.72;;;19.15
73662;BMP280;61956;52.540;13.382;2023-09-08T03:05:33;85205.59;;;19.08
73662;BMP280;61956;52.540;13.382;2023-09-08T03:08:05;85671.22;;;19.08
73662;BMP280;61956;52.540;13.382;2023-09-08T03:10:34;86082.59;;;19.09
73662;BMP280;61956;52.540;13.382;2023-09-08T03:13:06;85938.69;;;19.09
73662;BMP280;61956;52.540;13.382;2023-09-08T03:15:35;86089.13;;;19.06
73662;BMP280;61956;52.540;13.382;2023-09-08T03:18:05;86147.38;;;19.08
73662;BMP280;61956;52.540;13.382;2023-09-08T03:20:34;86114.59;;;19.05
73662;BMP280;61956;52.540;13.382;2023-09-08T03:23:04;86829.69;;;19.10
73662;BMP280;61956;52.540;13.382;2023-09-08T03:25:33;85102.34;;;18.95
73662;BMP280;61956;52.540;13.382;2023-09-08T03:28:02;84569.75;;;18.85
73662;BMP280;61956;52.540;13.382;2023-09-08T03:30:35;85055.38;;;18.83
73662;BMP280;61956;52.540;13.382;2023-09-08T03:33:04;85669.84;;;18.87
73662;BMP280;61956;52.540;13.382;2023-09-08T03:35:35;84643.06;;;18.77
73662;BMP280;61956;52.540;13.382;2023-09-08T03:38:04;84871.16;;;18.74
73662;BMP280;61956;52.540;13.382;2023-09-08T03:40:33;85574.38;;;18.78
73662;BMP280;61956;52.540;13.382;2023-09-08T03:43:06;84063.84;;;18.63
73662;BMP280;61956;52.540;13.382;2023-09-08T03:45:35;83802.19;;;18.55
73662;BMP280;61956;52.540;13.382;2023-09-08T03:48:05;85252.88;;;18.63
73662;BMP280;61956;52.540;13.382;2023-09-08T03:50:35;84990.22;;;18.60
73662;BMP280;61956;52.540;13.382;2023-09-08T03:53:04;86598.84;;;18.75
73662;BMP280;61956;52.540;13.382;2023-09-08T03:55:34;86660.34;;;18.78
73662;BMP280;61956;52.540;13.382;2023-09-08T03:58:06;86623.78;;;18.80
73662;BMP280;61956;52.540;13.382;2023-09-08T04:00:35;86923.31;;;18.81
73662;BMP280;61956;52.540;13.382;2023-09-08T04:03:05;86020.22;;;18.75
73662;BMP280;61956;52.540;13.382;2023-09-08T04:05:34;86437.34;;;18.78
73662;BMP280;61956;52.540;13.382;2023-09-08T04:08:04;86260.19;;;18.76
73662;BMP280;61956;52.540;13.382;2023-09-08T04:10:34;85892.72;;;18.71
73662;BMP280;61956;52.540;13.382;2023-09-08T04:13:06;85775.06;;;18.71
73662;BMP280;61956;52.540;13.382;2023-09-08T04:15:35;86517.09;;;18.75
73662;BMP280;61956;52.540;13.382;2023-09-08T04:18:05;85824.06;;;18.69
73662;BMP280;61956;52.540;13.382;2023-09-08T04:20:34;86192.75;;;18.71
73662;BMP280;61956;52.540;13.382;2023-09-08T04:23:04;86891.78;;;18.75
73662;BMP280;61956;52.540;13.382;2023-09-08T04:25:33;86816.59;;;18.76
73662;BMP280;61956;52.540;13.382;2023-09-08T04:28:02;86754.44;;;18.74
73662;BMP280;61956;52.540;13.382;2023-09-08T04:30:34;86063.94;;;18.68
73662;BMP280;61956;52.540;13.382;2023-09-08T04:33:04;86319.56;;;18.70
73662;BMP280;61956;52.540;13.382;2023-09-08T04:35:33;86717.09;;;18.72
73662;BMP280;61956;52.540;13.382;2023-09-08T04:38:03;86114.91;;;18.67
73662;BMP280;61956;52.540;13.382;2023-09-08T04:40:32;86084.84;;;18.64
73662;BMP280;61956;52.540;13.382;2023-09-08T04:43:01;86629.44;;;18.69
73662;BMP280;61956;52.540;13.382;2023-09-08T04:45:33;84947.84;;;18.52
73662;BMP280;61956;52.540;13.382;2023-09-08T04:48:04;86617.56;;;18.63
73662;BMP280;61956;52.540;13.382;2023-09-08T04:50:34;86809.88;;;18.67
73662;BMP280;61956;52.540;13.382;2023-09-08T04:53:04;87110.06;;;18.70
73662;BMP280;61956;52.540;13.382;2023-09-08T04:55:33;87187.94;;;18.72
73662;BMP280;61956;52.540;13.382;2023-09-08T04:58:04;87059.09;;;18.71
73662;BMP280;61956;52.540;13.382;2023-09-08T05:00:37;86418.88;;;18.65
73662;BMP280;61956;52.540;13.382;2023-09-08T05:03:08;85837.06;;;18.58
73662;BMP280;61956;52.540;13.382;2023-09-08T05:05:37;85683.50;;;18.55
73662;BMP280;61956;52.540;13.382;2023-09-08T05:08:06;86634.53;;;18.60
73662;BMP280;61956;52.540;13.382;2023-09-08T05:10:38;86606.44;;;18.61
73662;BMP280;61956;52.540;13.382;2023-09-08T05:13:08;86363.22;;;18.59
73662;BMP280;61956;52.540;13.382;2023-09-08T05:15:40;87153.09;;;18.65
73662;BMP280;61956;52.540;13.382;2023-09-08T05:18:10;87176.06;;;18.67
73662;BMP280;61956;52.540;13.382;2023-09-08T05:20:39;86483.53;;;18.61
73662;BMP280;61956;52.540;13.382;2023-09-08T05:23:09;86226.59;;;18.56
73662;BMP280;61956;52.540;13.382;2023-09-08T05:25:38;87210.66;;;18.65
73662;BMP280;61956;52.540;13.382;2023-09-08T05:28:10;86645.66;;;18.61
73662;BMP280;61956;52.540;13.382;2023-09-08T05:30:42;87239.34;;;18.63
73662;BMP280;61956;52.540;13.382;2023-09-08T05:33:11;87735.31;;;18.70
73662;BMP280;61956;52.540;13.382;2023-09-08T05:35:42;86416.16;;;18.57
73662;BMP280;61956;52.540;13.382;2023-09-08T05:38:11;86869.88;;;18.60
73662;BMP280;61956;52.540;13.382;2023-09-08T05:40:40;87176.56;;;18.63
73662;BMP280;61956;52.540;13.382;2023-09-08T05:43:09;88365.38;;;18.74
73662;BMP280;61956;52.540;13.382;2023-09-08T05:45:38;88092.06;;;18.77
73662;BMP280;61956;52.540;13.382;2023-09-08T05:48:10;88375.47;;;18.79
73662;BMP280;61956;52.540;13.382;2023-09-08T05:50:39;87414.84;;;18.71
73662;BMP280;61956;52.540;13.382;2023-09-08T05:53:09;88705.38;;;18.81
73662;BMP280;61956;52.540;13.382;2023-09-08T05:55:39;89692.50;;;18.93
73662;BMP280;61956;52.540;13.382;2023-09-08T05:58:09;89237.63;;;18.96
73662;BMP280;61956;52.540;13.382;2023-09-08T06:00:38;89904.00;;;19.02
73662;BMP280;61956;52.540;13.382;2023-09-08T06:03:10;88116.72;;;18.87
73662;BMP280;61956;52.540;13.382;2023-09-08T06:05:39;87601.53;;;18.80
73662;BMP280;61956;52.540;13.382;2023-09-08T06:08:08;88724.69;;;18.88
73662;BMP280;61956;52.540;13.382;2023-09-08T06:10:41;87731.72;;;18.79
73662;BMP280;61956;52.540;13.382;2023-09-08T06:13:10;88966.13;;;18.86
73662;BMP280;61956;52.540;13.382;2023-09-08T06:15:41;90928.09;;;19.13
73662;BMP280;61956;52.540;13.382;2023-09-08T06:18:14;90047.13;;;19.07
73662;BMP280;61956;52.540;13.382;2023-09-08T06:20:46;91533.03;;;19.28
73662;BMP280;61956;52.540;13.382;2023-09-08T06:23:19;91069.13;;;19.30
73662;BMP280;61956;52.540;13.382;2023-09-08T06:25:50;90682.88;;;19.28
73662;BMP280;61956;52.540;13.382;2023-09-08T06:28:26;89894.78;;;19.21
73662;BMP280;61956;52.540;13.382;2023-09-08T06:30:55;90941.19;;;19.29
73662;BMP280;61956;52.540;13.382;2023-09-08T06:33:27;91099.75;;;19.35
73662;BMP280;61956;52.540;13.382;2023-09-08T06:35:56;90135.06;;;19.28
73662;BMP280;61956;52.540;13.382;2023-09-08T06:38:26;89928.69;;;19.28
73662;BMP280;61956;52.540;13.382;2023-09-08T06:40:58;90448.53;;;19.31
73662;BMP280;61956;52.540;13.382;2023-09-08T06:43:27;92015.28;;;19.45
73662;BMP280;61956;52.540;13.382;2023-09-08T06:46:02;90788.19;;;19.41
73662;BMP280;61956;52.540;13.382;2023-09-08T06:48:39;91101.13;;;19.44
73662;BMP280;61956;52.540;13.382;2023-09-08T06:51:08;92234.34;;;19.57
73662;BMP280;61956;52.540;13.382;2023-09-08T06:53:38;94513.38;;;19.89
73662;BMP280;61956;52.540;13.382;2023-09-08T06:56:08;94269.84;;;19.95
73662;BMP280;61956;52.540;13.382;2023-09-08T06:58:37;93343.94;;;19.96
73662;BMP280;61956;52.540;13.382;2023-09-08T07:01:07;92832.06;;;19.92
73662;BMP280;61956;52.540;13.382;2023-09-08T07:03:38;93917.97;;;20.06
73662;BMP280;61956;52.540;13.382;2023-09-08T07:06:09;93733.09;;;20.09
73662;BMP280;61956;52.540;13.382;2023-09-08T07:08:38;94916.06;;;20.30
73662;BMP280;61956;52.540;13.382;2023-09-08T07:11:07;94280.25;;;20.28
73662;BMP280;61956;52.540;13.382;2023-09-08T07:13:37;94121.41;;;20.35
73662;BMP280;61956;52.540;13.382;2023-09-08T07:16:06;95603.72;;;20.50
73662;BMP280;61956;52.540;13.382;2023-09-08T07:18:39;94794.78;;;20.55
73662;BMP280;61956;52.540;13.382;2023-09-08T07:21:08;95186.19;;;20.60
73662;BMP280;61956;52.540;13.382;2023-09-08T07:23:38;95883.13;;;20.74
73662;BMP280;61956;52.540;13.382;2023-09-08T07:26:08;96909.69;;;20.96
73662;BMP280;61956;52.540;13.382;2023-09-08T07:28:39;95894.25;;;20.95
73662;BMP280;61956;52.540;13.382;2023-09-08T07:31:12;95333.44;;;20.95
73662;BMP280;61956;52.540;13.382;2023-09-08T07:33:46;96008.34;;;21.04
73662;BMP280;61956;52.540;13.382;2023-09-08T07:36:15;95925.03;;;21.11
73662;BMP280;61956;52.540;13.382;2023-09-08T07:38:46;95627.72;;;21.13
73662;BMP280;61956;52.540;13.382;2023-09-08T07:41:15;107113.50;;;22.42
73662;BMP280;61956;52.540;13.382;2023-09-08T07:43:44;118252.47;;;25.80
73662;BMP280;61956;52.540;13.382;2023-09-08T07:46:17;111990.34;;;27.72
73662;BMP280;61956;52.540;13.382;2023-09-08T07:48:49;110984.19;;;28.98
73662;BMP280;61956;52.540;13.382;2023-09-08T07:51:18;108177.25;;;29.54
73662;BMP280;61956;52.540;13.382;2023-09-08T07:53:48;105790.31;;;29.73
73662;BMP280;61956;52.540;13.382;2023-09-08T07:56:17;87405.75;;;26.21
73662;BMP280;61956;52.540;13.382;2023-09-08T07:58:48;86799.66;;;24.53
73662;BMP280;61956;52.540;13.382;2023-09-08T08:01:17;101592.44;;;26.46
73662;BMP280;61956;52.540;13.382;2023-09-08T08:03:49;105260.44;;;28.07
73662;BMP280;61956;52.540;13.382;2023-09-08T08:06:18;104538.75;;;28.71
73662;BMP280;61956;52.540;13.382;2023-09-08T08:08:47;104147.34;;;29.06
73662;BMP280;61956;52.540;13.382;2023-09-08T08:11:17;104234.13;;;29.34
73662;BMP280;61956;52.540;13.382;2023-09-08T08:13:46;104733.00;;;29.69
73662;BMP280;61956;52.540;13.382;2023-09-08T08:16:15;104653.41;;;29.90
73662;BMP280;61956;52.540;13.382;2023-09-08T08:18:48;101552.72;;;29.51
73662;BMP280;61956;52.540;13.382;2023-09-08T08:21:18;90014.22;;;27.23
73662;BMP280;61956;52.540;13.382;2023-09-08T08:23:49;86636.06;;;25.50
73662;BMP280;61956;52.540;13.382;2023-09-08T08:26:19;87079.56;;;24.76
73662;BMP280;61956;52.540;13.382;2023-09-08T08:28:49;88070.91;;;24.44
73662;BMP280;61956;52.540;13.382;2023-09-08T08:31:19;88447.88;;;24.18
73662;BMP280;61956;52.540;13.382;2023-09-08T08:33:52;88984.63;;;24.02
73662;BMP280;61956;52.540;13.382;2023-09-08T08:36:22;91106.41;;;24.11
73662;BMP280;61956;52.540;13.382;2023-09-08T08:38:51;91219.50;;;24.13
73662;BMP280;61956;52.540;13.382;2023-09-08T08:41:20;91924.13;;;24.18
73662;BMP280;61956;52.540;13.382;2023-09-08T08:43:50;93251.09;;;24.29
73662;BMP280;61956;52.540;13.382;2023-09-08T08:46:22;92792.13;;;24.20
73662;BMP280;61956;52.540;13.382;2023-09-08T08:48:55;92581.94;;;24.14
73662;BMP280;61956;52.540;13.382;2023-09-08T08:51:26;94995.44;;;24.46
73662;BMP280;61956;52.540;13.382;2023-09-08T08:53:57;94822.28;;;24.53
73662;BMP280;61956;52.540;13.382;2023-09-08T08:56:31;95252.03;;;24.65
73662;BMP280;61956;52.540;13.382;2023-09-08T08:59:01;94838.72;;;24.63
73662;BMP280;61956;52.540;13.382;2023-09-08T09:01:32;94378.97;;;24.54
73662;BMP280;61956;52.540;13.382;2023-09-08T09:04:05;95098.19;;;24.63
73662;BMP280;61956;52.540;13.382;2023-09-08T09:06:35;95517.25;;;24.72
73662;BMP280;61956;52.540;13.382;2023-09-08T09:09:05;95413.03;;;24.75
73662;BMP280;61956;52.540;13.382;2023-09-08T09:11:36;95337.19;;;24.78
73662;BMP280;61956;52.540;13.382;2023-09-08T09:14:05;95793.88;;;24.80
73662;BMP280;61956;52.540;13.382;2023-09-08T09:16:39;95760.44;;;24.83
73662;BMP280;61956;52.540;13.382;2023-09-08T09:19:17;95782.94;;;24.87
73662;BMP280;61956;52.540;13.382;2023-09-08T09:21:54;96611.59;;;25.00
73662;BMP280;61956;52.540;13.382;2023-09-08T09:24:31;96181.75;;;25.01
73662;BMP280;61956;52.540;13.382;2023-09-08T09:27:04;96671.06;;;25.11
73662;BMP280;61956;52.540;13.382;2023-09-08T09:29:35;96574.31;;;25.16
73662;BMP280;61956;52.540;13.382;2023-09-08T09:32:13;96607.59;;;25.17
73662;BMP280;61956;52.540;13.382;2023-09-08T09:34:52;97546.13;;;25.31
73662;BMP280;61956;52.540;13.382;2023-09-08T09:37:22;97173.50;;;25.36
73662;BMP280;61956;52.540;13.382;2023-09-08T09:39:53;97135.50;;;25.39
73662;BMP280;61956;52.540;13.382;2023-09-08T09:42:23;96175.13;;;25.24
73662;BMP280;61956;52.540;13.382;2023-09-08T09:44:52;97901.03;;;25.47
73662;BMP280;61956;52.540;13.382;2023-09-08T09:47:22;97511.97;;;25.53
73662;BMP280;61956;52.540;13.382;2023-09-08T09:49:57;97461.53;;;25.53
73662;BMP280;61956;52.540;13.382;2023-09-08T09:52:26;97501.25;;;25.57
73662;BMP280;61956;52.540;13.382;2023-09-08T09:54:57;97845.41;;;25.67
73662;BMP280;61956;52.540;13.382;2023-09-08T09:57:28;98675.66;;;25.84
73662;BMP280;61956;52.540;13.382;2023-09-08T09:59:59;98096.63;;;25.84
73662;BMP280;61956;52.540;13.382;2023-09-08T10:02:31;97429.09;;;25.78
73662;BMP280;61956;52.540;13.382;2023-09-08T10:05:13;98268.75;;;25.93
73662;BMP280;61956;52.540;13.382;2023-09-08T10:07:42;98200.81;;;25.95
73662;BMP280;61956;52.540;13.382;2023-09-08T10:10:15;97382.63;;;25.86
73662;BMP280;61956;52.540;13.382;2023-09-08T10:12:48;96712.94;;;25.73
73662;BMP280;61956;52.540;13.382;2023-09-08T10:15:22;97152.69;;;25.76
73662;BMP280;61956;52.540;13.382;2023-09-08T10:17:54;98472.19;;;25.94
73662;BMP280;61956;52.540;13.382;2023-09-08T10:20:28;98677.03;;;26.10
73662;BMP280;61956;52.540;13.382;2023-09-08T10:23:04;98476.56;;;26.11
73662;BMP280;61956;52.540;13.382;2023-09-08T10:25:39;98256.72;;;26.15
73662;BMP280;61956;52.540;13.382;2023-09-08T10:28:16;98877.44;;;26.27
73662;BMP280;61956;52.540;13.382;2023-09-08T10:30:46;98709.56;;;26.28
73662;BMP280;61956;52.540;13.382;2023-09-08T10:33:21;98588.81;;;26.29
73662;BMP280;61956;52.540;13.382;2023-09-08T10:35:54;98737.63;;;26.37
73662;BMP280;61956;52.540;13.382;2023-09-08T10:38:26;99223.06;;;26.52
73662;BMP280;61956;52.540;13.382;2023-09-08T10:41:27;97785.34;;;26.32
73662;BMP280;61956;52.540;13.382;2023-09-08T10:44:07;98905.09;;;26.51
73662;BMP280;61956;52.540;13.382;2023-09-08T10:46:36;99036.91;;;26.55
73662;BMP280;61956;52.540;13.382;2023-09-08T10:49:06;98848.41;;;26.61
73662;BMP280;61956;52.540;13.382;2023-09-08T10:51:40;98906.94;;;26.65
73662;BMP280;61956;52.540;13.382;2023-09-08T10:54:10;98835.88;;;26.65
73662;BMP280;61956;52.540;13.382;2023-09-08T10:56:54;98683.84;;;26.70
73662;BMP280;61956;52.540;13.382;2023-09-08T10:59:28;98846.09;;;26.74
73662;BMP280;61956;52.540;13.382;2023-09-08T11:01:58;99048.66;;;26.79
73662;BMP280;61956;52.540;13.382;2023-09-08T11:04:31;99036.09;;;26.83
73662;BMP280;61956;52.540;13.382;2023-09-08T11:07:06;99112.47;;;26.86
73662;BMP280;61956;52.540;13.382;2023-09-08T11:09:35;99212.44;;;26.91
73662;BMP280;61956;52.540;13.382;2023-09-08T11:12:07;98576.53;;;26.84
73662;BMP280;61956;52.540;13.382;2023-09-08T11:14:37;98301.88;;;26.76
73662;BMP280;61956;52.540;13.382;2023-09-08T11:17:06;99211.69;;;26.90
73662;BMP280;61956;52.540;13.382;2023-09-08T11:19:45;99060.75;;;26.91
73662;BMP280;61956;52.540;13.382;2023-09-08T11:22:22;98926.19;;;26.90
73662;BMP280;61956;52.540;13.382;2023-09-08T11:24:56;99668.44;;;27.06
73662;BMP280;61956;52.540;13.382;2023-09-08T11:27:27;98271.72;;;26.86
73662;BMP280;61956;52.540;13.382;2023-09-08T11:29:57;99604.91;;;27.04
73662;BMP280;61956;52.540;13.382;2023-09-08T11:32:32;98961.50;;;27.05
73662;BMP280;61956;52.540;13.382;2023-09-08T11:35:03;99421.59;;;27.13
73662;BMP280;61956;52.540;13.382;2023-09-08T11:37:38;98912.03;;;27.07
73662;BMP280;61956;52.540;13.382;2023-09-08T11:40:09;98459.28;;;27.02
73662;BMP280;61956;52.540;13.382;2023-09-08T11:42:40;97320.88;;;26.78
73662;BMP280;61956;52.540;13.382;2023-09-08T11:45:11;97372.16;;;26.66
73662;BMP280;61956;52.540;13.382;2023-09-08T11:47:43;99489.31;;;27.02
73662;BMP280;61956;52.540;13.382;2023-09-08T11:50:15;99389.66;;;27.10
73662;BMP280;61956;52.540;13.382;2023-09-08T11:52:51;100251.22;;;27.34
73662;BMP280;61956;52.540;13.382;2023-09-08T11:55:24;100255.94;;;27.44
73662;BMP280;61956;52.540;13.382;2023-09-08T11:57:55;99057.19;;;27.33
73662;BMP280;61956;52.540;13.382;2023-09-08T12:00:27;99498.91;;;27.35
73662;BMP280;61956;52.540;13.382;2023-09-08T12:03:10;99243.22;;;27.35
73662;BMP280;61956;52.540;13.382;2023-09-08T12:05:44;98911.91;;;27.29
73662;BMP280;61956;52.540;13.382;2023-09-08T12:08:25;99096.00;;;27.34
73662;BMP280;61956;52.540;13.382;2023-09-08T12:10:54;98990.25;;;27.31
73662;BMP280;61956;52.540;13.382;2023-09-08T12:13:23;97695.50;;;27.09
73662;BMP280;61956;52.540;13.382;2023-09-08T12:15:53;98374.34;;;27.11
73662;BMP280;61956;52.540;13.382;2023-09-08T12:18:37;99491.66;;;27.32
73662;BMP280;61956;52.540;13.382;2023-09-08T12:21:11;98713.41;;;27.21
73662;BMP280;61956;52.540;13.382;2023-09-08T12:23:50;99982.25;;;27.44
73662;BMP280;61956;52.540;13.382;2023-09-08T12:26:20;98821.31;;;27.32
73662;BMP280;61956;52.540;13.382;2023-09-08T12:28:50;98542.22;;;27.27
73662;BMP280;61956;52.540;13.382;2023-09-08T12:31:19;99258.44;;;27.34
73662;BMP280;61956;52.540;13.382;2023-09-08T12:33:52;99205.56;;;27.36
73662;BMP280;61956;52.540;13.382;2023-09-08T12:36:23;99737.56;;;27.50
73662;BMP280;61956;52.540;13.382;2023-09-08T12:38:55;99967.53;;;27.58
73662;BMP280;61956;52.540;13.382;2023-09-08T12:41:24;99018.28;;;27.50
73662;BMP280;61956;52.540;13.382;2023-09-08T12:43:53;100298.47;;;27.67
73662;BMP280;61956;52.540;13.382;2023-09-08T12:46:23;99783.34;;;27.70
73662;BMP280;61956;52.540;13.382;2023-09-08T12:48:52;99017.50;;;27.60
73662;BMP280;61956;52.540;13.382;2023-09-08T12:51:21;97482.00;;;27.30
73662;BMP280;61956;52.540;13.382;2023-09-08T12:53:56;99326.50;;;27.50
73662;BMP280;61956;52.540;13.382;2023-09-08T12:56:26;99380.19;;;27.55
73662;BMP280;61956;52.540;13.382;2023-09-08T12:58:55;99674.78;;;27.67
73662;BMP280;61956;52.540;13.382;2023-09-08T13:01:24;99859.88;;;27.69
73662;BMP280;61956;52.540;13.382;2023-09-08T13:03:58;99240.88;;;27.65
73662;BMP280;61956;52.540;13.382;2023-09-08T13:06:27;98802.88;;;27.56
73662;BMP280;61956;52.540;13.382;2023-09-08T13:09:00;97941.78;;;27.42
73662;BMP280;61956;52.540;13.382;2023-09-08T13:11:30;99725.09;;;27.68
73662;BMP280;61956;52.540;13.382;2023-09-08T13:14:00;99723.94;;;27.69
73662;BMP280;61956;52.540;13.382;2023-09-08T13:16:29;97534.94;;;27.41
73662;BMP280;61956;52.540;13.382;2023-09-08T13:18:59;97492.09;;;27.23
73662;BMP280;61956;52.540;13.382;2023-09-08T13:21:31;100276.03;;;27.68
73662;BMP280;61956;52.540;13.382;2023-09-08T13:24:05;100277.00;;;27.86
73662;BMP280;61956;52.540;13.382;2023-09-08T13:26:36;100196.34;;;27.93
73662;BMP280;61956;52.540;13.382;2023-09-08T13:29:05;100461.28;;;28.04
73662;BMP280;61956;52.540;13.382;2023-09-08T13:31:35;98909.59;;;27.79
73662;BMP280;61956;52.540;13.382;2023-09-08T13:34:04;99891.59;;;27.92
73662;BMP280;61956;52.540;13.382;2023-09-08T13:36:33;98878.03;;;27.74
73662;BMP280;61956;52.540;13.382;2023-09-08T13:39:05;98464.97;;;27.58
73662;BMP280;61956;52.540;13.382;2023-09-08T13:41:47;99880.88;;;27.82
73662;BMP280;61956;52.540;13.382;2023-09-08T13:44:19;100293.50;;;27.92
73662;BMP280;61956;52.540;13.382;2023-09-08T13:46:49;99179.47;;;27.83
73662;BMP280;61956;52.540;13.382;2023-09-08T13:49:19;98823.19;;;27.76
73662;BMP280;61956;52.540;13.382;2023-09-08T13:51:49;99351.59;;;27.88
73662;BMP280;61956;52.540;13.382;2023-09-08T13:54:23;99420.47;;;27.89
73662;BMP280;61956;52.540;13.382;2023-09-08T13:56:58;99621.56;;;27.99
73662;BMP280;61956;52.540;13.382;2023-09-08T13:59:29;99057.97;;;27.89
73662;BMP280;61956;52.540;13.382;2023-09-08T14:01:58;100089.00;;;27.99
73662;BMP280;61956;52.540;13.382;2023-09-08T14:04:29;100150.06;;;28.12
73662;BMP280;61956;52.540;13.382;2023-09-08T14:06:58;98774.28;;;27.94
73662;BMP280;61956;52.540;13.382;2023-09-08T14:09:31;98112.28;;;27.75
73662;BMP280;61956;52.540;13.382;2023-09-08T14:12:00;99163.13;;;27.85
73662;BMP280;61956;52.540;13.382;2023-09-08T14:14:29;99423.91;;;27.93
73662;BMP280;61956;52.540;13.382;2023-09-08T14:16:59;99711.47;;;28.05
73662;BMP280;61956;52.540;13.382;2023-09-08T14:19:31;99273.50;;;27.94